Time;durP1;ratioP1;P1;durP2;ratioP2;P2;SDS_P1;SDS_P2;PMS_P1;PMS_P2;Temp;Humidity;BMP_temperature;BMP_pressure;BME280_temperature;BME280_humidity;BME280_pressure;Samples;Min_cycle;Max_cycle;Signal;HPM_P1;HPM_P2
2022/03/26 00:00:48;;;;;;;29.90;13.03;;;;;;;12.94;26.81;95965.31;4932639;29;20886;-60
2022/03/26 00:03:16;;;;;;;25.83;13.07;;;;;;;13.42;25.68;95962.78;4932887;29;20449;-60
2022/03/26 00:05:43;;;;;;;26.60;13.70;;;;;;;13.64;25.69;95962.75;4932516;29;20479;-62
2022/03/26 00:08:11;;;;;;;25.73;14.17;;;;;;;13.83;25.58;95964.00;4933509;29;20456;-56
2022/03/26 00:10:39;;;;;;;31.47;13.67;;;;;;;13.69;25.70;95960.97;4932672;29;21102;-64
2022/03/26 00:13:07;;;;;;;27.83;13.10;;;;;;;13.42;26.13;95964.59;4933583;29;20449;-64
2022/03/26 00:15:34;;;;;;;24.90;13.43;;;;;;;13.63;25.92;95969.84;4932878;29;20943;-62
2022/03/26 00:18:01;;;;;;;28.63;13.07;;;;;;;13.58;26.05;95966.34;4932382;29;21017;-65
2022/03/26 00:20:28;;;;;;;25.60;13.83;;;;;;;13.38;26.18;95966.13;4932620;29;20842;-60
2022/03/26 00:22:55;;;;;;;28.57;13.73;;;;;;;13.48;26.26;95971.53;4933325;29;20452;-66
2022/03/26 00:25:22;;;;;;;29.63;13.27;;;;;;;13.32;26.83;95988.19;4932660;29;20455;-67
2022/03/26 00:27:50;;;;;;;36.47;13.77;;;;;;;13.17;26.74;95973.78;4932423;29;21014;-62
2022/03/26 00:30:17;;;;;;;26.37;13.80;;;;;;;13.14;26.94;95976.94;4932020;29;21034;-63
2022/03/26 00:32:44;;;;;;;33.73;14.17;;;;;;;12.82;27.60;95978.59;4932965;29;20447;-62
2022/03/26 00:35:11;;;;;;;29.83;14.10;;;;;;;12.99;27.24;95979.31;4932743;29;20452;-64
2022/03/26 00:37:40;;;;;;;42.27;23.07;;;;;;;13.13;26.46;95974.53;4932515;29;20468;-62
2022/03/26 00:40:09;;;;;;;55.53;25.77;;;;;;;13.09;26.68;95973.44;4932067;29;20454;-59
2022/03/26 00:42:36;;;;;;;46.80;23.67;;;;;;;13.13;26.15;95985.88;4932475;29;20476;-64
2022/03/26 00:45:03;;;;;;;48.50;23.30;;;;;;;13.01;27.01;95971.22;4931729;29;20440;-63
2022/03/26 00:47:31;;;;;;;40.97;20.57;;;;;;;12.94;26.78;95992.44;4931751;29;20516;-57
2022/03/26 00:49:58;;;;;;;41.63;18.90;;;;;;;12.85;27.13;95988.63;4931511;29;20499;-59
2022/03/26 00:52:24;;;;;;;41.13;17.03;;;;;;;12.86;26.44;95987.59;4932447;29;20613;-59
2022/03/26 00:54:51;;;;;;;38.23;16.73;;;;;;;12.65;27.24;95983.06;4931976;29;20475;-60
2022/03/26 00:57:18;;;;;;;41.37;17.70;;;;;;;12.71;27.06;95994.47;4932156;29;20793;-66
2022/03/26 00:59:45;;;;;;;39.40;17.80;;;;;;;12.60;27.26;95980.38;4930779;29;20443;-59
2022/03/26 01:02:13;;;;;;;58.93;19.73;;;;;;;12.62;27.04;95993.28;4932808;29;21063;-61
2022/03/26 01:04:39;;;;;;;41.57;21.93;;;;;;;12.72;27.41;95994.22;4932468;29;20455;-63
2022/03/26 01:07:06;;;;;;;37.57;21.07;;;;;;;12.75;27.12;96004.28;4932500;29;20482;-66
2022/03/26 01:09:33;;;;;;;40.97;22.43;;;;;;;12.79;27.07;96001.97;4931920;29;20492;-62
2022/03/26 01:12:00;;;;;;;48.17;22.93;;;;;;;12.70;27.18;96000.78;4932815;29;20455;-61
2022/03/26 01:14:29;;;;;;;46.70;22.47;;;;;;;12.22;27.96;96011.84;4931598;29;20448;-64
2022/03/26 01:16:55;;;;;;;45.03;21.43;;;;;;;12.45;27.27;96006.44;4931783;29;20539;-63
2022/03/26 01:19:22;;;;;;;44.03;22.70;;;;;;;12.51;27.61;96008.13;4931718;29;20439;-60
2022/03/26 01:21:49;;;;;;;41.93;22.07;;;;;;;12.55;27.47;96014.50;4932072;29;20448;-63
2022/03/26 01:24:16;;;;;;;48.70;23.57;;;;;;;12.45;27.84;96008.25;4931689;29;20463;-54
2022/03/26 01:26:43;;;;;;;40.03;21.80;;;;;;;12.30;27.69;96016.69;4932652;29;20448;-66
2022/03/26 01:29:10;;;;;;;38.67;20.93;;;;;;;12.36;27.53;96010.50;4931434;29;20510;-58
2022/03/26 01:31:37;;;;;;;42.07;21.40;;;;;;;12.50;26.96;96018.88;4932303;29;20456;-57
2022/03/26 01:34:04;;;;;;;40.87;20.00;;;;;;;12.55;27.19;96022.38;4931756;29;20449;-57
2022/03/26 01:36:31;;;;;;;35.30;20.27;;;;;;;12.55;27.19;96013.69;4931222;29;20827;-61
2022/03/26 01:38:59;;;;;;;35.57;18.07;;;;;;;11.66;28.46;96019.81;4931489;29;21062;-60
2022/03/26 01:41:25;;;;;;;42.63;17.43;;;;;;;11.65;28.94;96031.31;4931859;29;20991;-57
2022/03/26 01:43:52;;;;;;;37.73;18.33;;;;;;;11.80;28.92;96021.91;4932155;29;20456;-57
2022/03/26 01:46:20;;;;;;;36.53;17.40;;;;;;;11.93;28.41;96026.06;4931055;29;20448;-61
2022/03/26 01:48:49;;;;;;;32.33;16.83;;;;;;;12.02;28.93;96035.16;4931685;29;20488;-57
2022/03/26 01:51:16;;;;;;;32.47;17.27;;;;;;;11.84;28.93;96035.38;4930881;29;20558;-60
2022/03/26 01:53:51;;;;;;;33.30;17.03;;;;;;;11.88;29.09;96029.38;4931996;29;21463;-62
2022/03/26 01:56:20;;;;;;;35.93;18.03;;;;;;;11.74;29.12;96028.09;4931201;29;20518;-64
2022/03/26 01:58:47;;;;;;;37.03;16.07;;;;;;;11.69;29.60;96021.94;4931714;29;20899;-63
2022/03/26 02:01:14;;;;;;;34.03;16.97;;;;;;;11.60;29.41;96036.44;4930690;29;20444;-64
2022/03/26 02:03:41;;;;;;;32.70;16.50;;;;;;;11.65;29.48;96031.31;4931673;29;20447;-60
2022/03/26 02:06:08;;;;;;;40.80;19.33;;;;;;;11.67;29.17;96029.25;4931087;29;20547;-61
2022/03/26 02:08:35;;;;;;;44.43;18.13;;;;;;;11.69;28.28;96024.56;4931664;29;20432;-56
2022/03/26 02:11:03;;;;;;;35.67;17.67;;;;;;;11.68;28.86;96033.47;4933402;29;20622;-62
2022/03/26 02:13:53;;;;;;;41.07;19.07;;;;;;;11.53;29.31;96041.03;4935513;29;20479;-60
2022/03/26 02:16:22;;;;;;;45.27;20.80;;;;;;;11.01;29.49;96038.41;4934050;29;20448;-63
2022/03/26 02:18:49;;;;;;;39.90;20.13;;;;;;;11.14;29.16;96046.03;4934815;29;20455;-66
2022/03/26 02:21:17;;;;;;;49.00;21.27;;;;;;;10.64;30.43;96042.28;4934040;29;20606;-63
2022/03/26 02:23:45;;;;;;;33.43;18.50;;;;;;;10.08;31.51;96041.94;4935413;29;20488;-63
2022/03/26 02:26:16;;;;;;;32.70;16.93;;;;;;;10.38;30.48;96050.59;4934815;29;20917;-58
2022/03/26 02:28:44;;;;;;;30.63;14.50;;;;;;;9.80;31.21;96044.34;4934579;29;21021;-60
2022/03/26 02:31:12;;;;;;;25.45;14.18;;;;;;;9.85;31.45;96041.88;4933435;29;20519;-55
2022/03/26 02:33:40;;;;;;;31.70;15.75;;;;;;;10.87;30.51;96037.06;4934593;29;20200;-63
2022/03/26 02:36:08;;;;;;;36.15;17.45;;;;;;;11.03;30.05;96046.84;4934713;29;20211;-64
2022/03/26 02:38:36;;;;;;;27.70;14.50;;;;;;;11.17;29.63;96053.44;4934736;29;20331;-55
2022/03/26 02:41:04;;;;;;;29.43;14.03;;;;;;;11.21;29.59;96049.31;4933858;29;20287;-58
2022/03/26 02:43:31;;;;;;;26.67;13.48;;;;;;;11.22;29.95;96050.91;4934926;29;20811;-65
2022/03/26 02:45:58;;;;;;;27.77;13.30;;;;;;;11.22;29.70;96050.13;4933860;29;20201;-63
2022/03/26 02:48:25;;;;;;;32.90;14.27;;;;;;;11.17;29.81;96048.19;4935003;29;20211;-57
2022/03/26 02:50:53;;;;;;;30.38;13.85;;;;;;;11.13;30.03;96044.41;4933890;29;21037;-59
2022/03/26 02:53:23;;;;;;;25.10;13.40;;;;;;;11.14;30.03;96048.66;4934521;29;20661;-64
2022/03/26 02:55:52;;;;;;;30.30;14.38;;;;;;;11.12;30.54;96055.97;4934069;29;21046;-60
2022/03/26 02:58:19;;;;;;;27.77;14.37;;;;;;;11.08;30.93;96057.44;4934751;29;20208;-59
2022/03/26 03:00:46;;;;;;;39.13;16.97;;;;;;;10.92;31.22;96060.75;4933738;29;20909;-60
2022/03/26 03:03:13;;;;;;;34.22;19.13;;;;;;;10.94;30.65;96061.34;4934390;29;20456;-58
2022/03/26 03:05:41;;;;;;;39.07;20.03;;;;;;;10.89;31.25;96066.44;4933964;29;20232;-63
2022/03/26 03:08:08;;;;;;;43.20;24.58;;;;;;;10.94;31.05;96069.19;4934431;29;20448;-64
2022/03/26 03:10:35;;;;;;;47.33;25.27;;;;;;;10.82;30.70;96071.00;4933347;29;20279;-63
2022/03/26 03:13:02;;;;;;;60.97;26.08;;;;;;;11.02;30.54;96071.47;4934430;29;20184;-64
2022/03/26 03:15:28;;;;;;;58.70;29.05;;;;;;;10.81;31.05;96064.19;4933077;29;20357;-62
2022/03/26 03:17:55;;;;;;;55.75;27.70;;;;;;;10.67;30.82;96057.56;4934364;29;20303;-55
2022/03/26 03:20:23;;;;;;;50.40;28.02;;;;;;;10.85;30.84;96072.38;4933738;29;20626;-56
2022/03/26 03:22:49;;;;;;;50.72;27.45;;;;;;;10.65;30.73;96070.09;4932485;29;20212;-61
2022/03/26 03:25:16;;;;;;;47.37;26.43;;;;;;;10.49;31.22;96067.34;4933933;29;20727;-63
2022/03/26 03:27:43;;;;;;;42.35;24.58;;;;;;;10.48;30.92;96068.34;4933964;29;20443;-62
2022/03/26 03:30:11;;;;;;;51.97;25.13;;;;;;;10.59;31.43;96075.44;4932930;29;20228;-63
2022/03/26 03:32:38;;;;;;;45.83;24.40;;;;;;;10.60;31.42;96072.59;4933577;29;21054;-54
2022/03/26 03:35:05;;;;;;;44.05;23.35;;;;;;;10.52;31.74;96072.94;4916296;29;20255;-61
2022/03/26 03:37:39;;;;;;;52.45;24.25;;;;;;;10.63;31.07;96071.34;4933813;29;20299;-52
2022/03/26 03:40:07;;;;;;;50.13;23.08;;;;;;;10.47;31.50;96078.06;4932912;29;20710;-64
2022/03/26 03:42:34;;;;;;;43.75;23.20;;;;;;;10.39;30.98;96075.75;4933604;29;20232;-59
2022/03/26 03:45:02;;;;;;;45.40;22.77;;;;;;;10.40;31.13;96066.09;4933280;29;20212;-63
2022/03/26 03:47:29;;;;;;;42.33;21.50;;;;;;;10.39;31.46;96086.25;4933511;29;20232;-61
2022/03/26 03:49:56;;;;;;;42.35;22.23;;;;;;;10.31;31.21;96078.69;4932988;29;20649;-65
2022/03/26 03:52:23;;;;;;;36.28;20.65;;;;;;;10.40;31.04;96077.34;4933679;29;20192;-63
2022/03/26 03:54:50;;;;;;;40.85;19.85;;;;;;;10.42;31.24;96077.13;4932949;29;20633;-58
2022/03/26 03:57:17;;;;;;;38.38;19.63;;;;;;;10.29;31.15;96080.75;4933562;29;20620;-61
2022/03/26 03:59:44;;;;;;;33.93;18.77;;;;;;;10.23;31.71;96073.78;4931507;29;20208;-54
2022/03/26 04:02:11;;;;;;;33.85;17.90;;;;;;;10.46;31.18;96071.22;4933388;29;20971;-60
2022/03/26 04:04:40;;;;;;;34.50;17.73;;;;;;;10.54;30.73;96078.75;4933325;29;20292;-62
2022/03/26 04:07:10;;;;;;;26.70;16.35;;;;;;;10.47;30.96;96072.81;4932317;29;20197;-64
2022/03/26 04:09:37;;;;;;;30.33;16.23;;;;;;;10.38;30.82;96087.28;4932407;29;20377;-64
2022/03/26 04:12:05;;;;;;;34.25;15.20;;;;;;;10.40;31.31;96087.03;4932993;29;20449;-57
2022/03/26 04:14:32;;;;;;;22.20;13.25;;;;;;;10.32;31.16;96090.78;4933648;29;20656;-59
2022/03/26 04:16:59;;;;;;;24.87;12.70;;;;;;;10.41;31.02;96096.50;4933823;29;20208;-59
2022/03/26 04:19:27;;;;;;;20.42;11.98;;;;;;;10.46;31.16;96092.19;4933256;29;20447;-61
2022/03/26 04:21:56;;;;;;;18.90;11.38;;;;;;;10.40;30.97;96093.06;4933040;29;20356;-60
2022/03/26 04:24:23;;;;;;;26.60;12.55;;;;;;;10.58;30.66;96100.06;4932364;29;20196;-60
2022/03/26 04:26:51;;;;;;;21.17;12.48;;;;;;;10.38;31.40;96100.38;4932816;29;20218;-60
2022/03/26 04:29:19;;;;;;;21.88;12.20;;;;;;;10.37;30.98;96103.19;4932553;29;20311;-59
2022/03/26 04:31:46;;;;;;;20.70;11.35;;;;;;;10.38;31.12;96103.00;4932785;29;20252;-55
2022/03/26 04:34:13;;;;;;;20.33;10.48;;;;;;;10.51;30.75;96107.25;4931890;29;20208;-62
2022/03/26 04:36:40;;;;;;;20.98;11.68;;;;;;;10.06;31.33;96112.06;4931988;29;20240;-59
2022/03/26 04:39:07;;;;;;;22.75;11.95;;;;;;;10.05;30.90;96105.25;4932497;29;20600;-57
2022/03/26 04:41:34;;;;;;;23.15;12.15;;;;;;;10.05;31.06;96113.09;4932194;29;20232;-59
2022/03/26 04:44:02;;;;;;;23.80;12.07;;;;;;;10.14;31.23;96119.66;4932893;29;20312;-64
2022/03/26 04:46:29;;;;;;;19.85;11.80;;;;;;;10.18;31.42;96120.81;4932031;29;20200;-63
2022/03/26 04:48:56;;;;;;;19.63;11.60;;;;;;;10.09;31.11;96119.53;4932253;29;20259;-62
2022/03/26 04:51:24;;;;;;;18.48;10.90;;;;;;;10.00;31.90;96118.19;4931232;29;20259;-63
2022/03/26 04:53:51;;;;;;;22.42;11.02;;;;;;;10.03;31.95;96128.25;4932286;29;20564;-63
2022/03/26 04:56:18;;;;;;;21.83;11.40;;;;;;;10.16;31.92;96138.56;4932220;29;20643;-63
2022/03/26 04:58:45;;;;;;;24.85;11.40;;;;;;;10.14;31.40;96130.91;4932599;29;20232;-64
2022/03/26 05:01:12;;;;;;;23.10;11.90;;;;;;;10.24;32.10;96125.16;4931403;29;20201;-60
2022/03/26 05:03:39;;;;;;;20.48;11.40;;;;;;;10.20;31.90;96134.47;4932459;29;20243;-59
2022/03/26 05:06:06;;;;;;;36.92;18.60;;;;;;;10.22;32.17;96127.19;4932143;29;20216;-60
2022/03/26 05:08:33;;;;;;;43.25;23.58;;;;;;;10.56;32.16;96138.81;4932340;29;20192;-59
2022/03/26 05:10:59;;;;;;;53.08;25.80;;;;;;;10.17;32.34;96130.50;4931132;29;20228;-63
2022/03/26 05:13:26;;;;;;;52.13;26.88;;;;;;;10.20;32.47;96135.28;4932000;29;20234;-65
2022/03/26 05:15:53;;;;;;;48.53;24.20;;;;;;;10.38;32.68;96142.31;4931329;29;20307;-60
2022/03/26 05:18:25;;;;;;;46.67;24.40;;;;;;;10.18;32.66;96141.78;4915814;29;20296;-59
2022/03/26 05:20:55;;;;;;;43.90;23.97;;;;;;;10.20;32.74;96143.13;4931292;29;20888;-64
2022/03/26 05:23:24;;;;;;;44.53;23.88;;;;;;;10.19;33.05;96145.97;4931283;29;20452;-59
2022/03/26 05:25:52;;;;;;;47.25;25.00;;;;;;;10.10;32.95;96152.56;4930804;29;20197;-54
2022/03/26 05:28:19;;;;;;;55.08;24.90;;;;;;;10.02;32.99;96148.38;4931924;29;20778;-60
2022/03/26 05:30:50;;;;;;;52.83;24.50;;;;;;;10.61;32.75;96144.97;4929424;29;20255;-63
2022/03/26 05:33:17;;;;;;;65.15;25.35;;;;;;;10.01;33.81;96151.22;4928970;29;20209;-63
2022/03/26 05:35:44;;;;;;;43.97;23.23;;;;;;;9.76;33.89;96159.16;4929818;29;20196;-55
2022/03/26 05:38:11;;;;;;;42.30;23.97;;;;;;;10.10;33.54;96144.69;4930759;29;20708;-56
2022/03/26 05:40:38;;;;;;;44.95;24.08;;;;;;;9.60;33.50;96149.28;4912935;29;20456;-59
2022/03/26 05:43:06;;;;;;;56.33;25.73;;;;;;;9.82;34.13;96152.25;4930932;29;20296;-60
2022/03/26 05:45:33;;;;;;;50.35;25.27;;;;;;;9.71;34.73;96163.47;4933142;29;20211;-60
2022/03/26 05:48:06;;;;;;;46.83;24.27;;;;;;;9.80;34.12;96157.72;4934959;29;20219;-59
2022/03/26 05:50:35;;;;;;;44.70;25.13;;;;;;;9.97;34.01;96165.78;4934802;29;20260;-62
2022/03/26 05:53:03;;;;;;;53.72;28.17;;;;;;;10.07;33.81;96166.06;4918552;29;20213;-58
2022/03/26 05:55:30;;;;;;;53.80;30.13;;;;;;;10.31;33.34;96162.53;4935068;29;20300;-57
2022/03/26 05:57:57;;;;;;;59.38;32.38;;;;;;;10.36;33.10;96160.06;4935154;29;20301;-61
2022/03/26 06:00:24;;;;;;;54.85;29.08;;;;;;;10.46;32.63;96149.81;4935086;29;20219;-56
2022/03/26 06:02:51;;;;;;;48.80;27.67;;;;;;;10.57;33.00;96164.78;4934533;29;20189;-62
2022/03/26 06:05:19;;;;;;;42.25;24.38;;;;;;;10.70;32.32;96164.59;4934796;29;20206;-65
2022/03/26 06:07:46;;;;;;;34.83;20.13;;;;;;;10.80;32.38;96166.66;4935452;29;20626;-63
2022/03/26 06:10:13;;;;;;;34.20;18.20;;;;;;;10.94;32.25;96163.63;4934597;29;20244;-63
2022/03/26 06:12:44;;;;;;;42.60;18.80;;;;;;;10.96;32.15;96172.06;4935294;29;20451;-62
2022/03/26 06:15:12;;;;;;;29.10;18.63;;;;;;;11.06;31.71;96161.78;4934367;29;20267;-57
2022/03/26 06:18:00;;;;;;;28.73;16.60;;;;;;;11.14;33.42;96166.72;4935389;29;20448;-63
2022/03/26 06:20:27;;;;;;;26.97;15.40;;;;;;;11.06;32.24;96161.78;4934490;29;20463;-64
2022/03/26 06:22:55;;;;;;;25.57;14.60;;;;;;;11.33;32.47;96162.13;4935328;29;20959;-63
2022/03/26 06:25:22;;;;;;;28.70;15.53;;;;;;;11.09;31.83;96168.41;4935270;29;20475;-59
2022/03/26 06:27:50;;;;;;;29.50;16.73;;;;;;;10.96;32.74;96177.31;4934961;29;20452;-67
2022/03/26 06:30:17;;;;;;;30.47;15.77;;;;;;;11.13;31.51;96170.34;4934131;29;20471;-55
2022/03/26 06:32:44;;;;;;;31.53;16.40;;;;;;;11.34;31.33;96173.44;4935294;29;20483;-61
2022/03/26 06:35:12;;;;;;;27.43;15.67;;;;;;;11.41;31.29;96174.91;4934653;29;20448;-63
2022/03/26 06:37:40;;;;;;;21.13;14.47;;;;;;;11.53;31.56;96182.78;4917246;29;20559;-59
2022/03/26 06:40:08;;;;;;;33.20;14.77;;;;;;;11.78;31.10;96159.72;4934333;29;20862;-57
2022/03/26 06:42:35;;;;;;;24.80;13.83;;;;;;;11.87;31.15;96180.13;4934884;29;20503;-64
2022/03/26 06:45:03;;;;;;;26.07;14.33;;;;;;;12.03;31.52;96189.13;4934441;29;21148;-65
2022/03/26 06:47:31;;;;;;;25.90;14.00;;;;;;;11.92;31.10;96179.44;4934450;29;20477;-63
2022/03/26 06:49:58;;;;;;;28.37;14.77;;;;;;;12.04;31.05;96185.47;4934260;29;20444;-60
2022/03/26 06:52:26;;;;;;;31.83;15.77;;;;;;;11.56;31.20;96188.38;4933684;29;20480;-64
2022/03/26 06:54:53;;;;;;;23.90;14.13;;;;;;;12.18;31.26;96186.78;4934111;29;20970;-60
2022/03/26 06:57:20;;;;;;;28.10;15.10;;;;;;;12.59;30.26;96183.09;4934318;29;20498;-60
2022/03/26 06:59:48;;;;;;;31.20;16.50;;;;;;;12.52;30.11;96183.22;4934290;29;21286;-64
2022/03/26 07:02:15;;;;;;;27.47;16.90;;;;;;;12.41;30.34;96186.69;4934229;29;20447;-62
2022/03/26 07:04:43;;;;;;;31.63;16.27;;;;;;;12.69;30.43;96191.16;4933995;29;20824;-61
2022/03/26 07:07:14;;;;;;;36.53;17.10;;;;;;;12.78;29.87;96190.53;4917519;29;20452;-64
2022/03/26 07:09:42;;;;;;;27.17;16.67;;;;;;;12.62;30.50;96199.19;4933620;29;20487;-63
2022/03/26 07:12:10;;;;;;;32.03;16.67;;;;;;;12.81;30.01;96197.94;4934000;29;20499;-60
2022/03/26 07:14:37;;;;;;;28.80;16.37;;;;;;;12.92;30.50;96193.63;4933644;29;20444;-58
2022/03/26 07:17:05;;;;;;;32.70;17.90;;;;;;;13.00;29.66;96199.31;4933531;29;20445;-64
2022/03/26 07:19:34;;;;;;;33.73;16.87;;;;;;;13.35;28.76;96198.31;4932918;29;20987;-66
2022/03/26 07:22:02;;;;;;;31.33;17.00;;;;;;;13.63;28.38;96200.84;4930649;29;20516;-61
2022/03/26 07:24:30;;;;;;;27.13;16.83;;;;;;;13.03;29.21;96200.69;4933690;29;20452;-60
2022/03/26 07:26:57;;;;;;;31.37;16.37;;;;;;;12.55;29.35;96195.91;4933634;29;20515;-64
2022/03/26 07:29:25;;;;;;;26.30;15.97;;;;;;;13.35;28.48;96199.13;4914767;29;20452;-58
2022/03/26 07:31:52;;;;;;;30.17;16.27;;;;;;;13.41;28.96;96197.34;4914762;29;20484;-64
2022/03/26 07:34:20;;;;;;;28.97;17.47;;;;;;;13.74;28.80;96194.69;4932177;29;20468;-63
2022/03/26 07:36:47;;;;;;;31.70;15.97;;;;;;;13.90;28.72;96191.19;4932961;29;20468;-60
2022/03/26 07:39:16;;;;;;;33.27;16.43;;;;;;;13.65;28.17;96196.13;4932564;29;20471;-65
2022/03/26 07:41:43;;;;;;;27.23;15.43;;;;;;;13.61;31.16;96192.38;4933946;29;20453;-69
2022/03/26 07:44:12;;;;;;;26.40;15.43;;;;;;;14.10;29.29;96196.72;4931258;29;20471;-61
2022/03/26 07:46:40;;;;;;;24.73;15.07;;;;;;;14.14;29.20;96203.09;4933429;29;20746;-61
2022/03/26 07:49:07;;;;;;;28.77;15.43;;;;;;;14.83;28.84;96189.09;4932681;29;20464;-61
2022/03/26 07:51:35;;;;;;;24.30;15.23;;;;;;;15.10;27.90;96187.22;4933513;29;21045;-60
2022/03/26 07:54:02;;;;;;;27.43;16.53;;;;;;;15.08;27.12;96188.50;4933596;29;20844;-67
2022/03/26 07:56:29;;;;;;;27.77;15.63;;;;;;;14.89;27.19;96190.72;4933857;29;20448;-60
2022/03/26 07:59:00;;;;;;;95.20;49.50;;;;;;;15.15;27.66;96192.53;4933094;29;20452;-69
2022/03/26 08:01:27;;;;;;;32.37;18.43;;;;;;;15.25;26.11;96184.69;4933588;29;20470;-61
2022/03/26 08:03:55;;;;;;;37.13;20.67;;;;;;;15.19;26.12;96183.06;4933247;29;20465;-67
2022/03/26 08:06:24;;;;;;;33.10;15.37;;;;;;;15.69;25.97;96184.50;4932992;29;20447;-58
2022/03/26 08:08:51;;;;;;;24.23;14.87;;;;;;;15.82;26.17;96174.25;4932634;29;20431;-69
2022/03/26 08:11:19;;;;;;;27.63;15.57;;;;;;;15.77;25.86;96176.06;4932606;29;20473;-65
2022/03/26 08:13:47;;;;;;;25.83;15.60;;;;;;;14.84;25.68;96166.94;4933159;29;20959;-60
2022/03/26 08:16:14;;;;;;;26.13;14.80;;;;;;;15.27;25.30;96178.38;4932955;29;20543;-67
2022/03/26 08:18:41;;;;;;;67.93;50.13;;;;;;;15.98;26.32;96177.75;4932978;29;20440;-62
2022/03/26 08:21:10;;;;;;;27.40;15.00;;;;;;;16.18;24.52;96169.91;4933397;29;20452;-63
2022/03/26 08:23:38;;;;;;;26.80;14.97;;;;;;;15.88;24.17;96172.41;4933930;29;20978;-61
2022/03/26 08:26:22;;;;;;;88.33;56.73;;;;;;;16.05;24.11;96178.31;4933261;29;20448;-65
2022/03/26 08:28:51;;;;;;;72.17;47.07;;;;;;;16.11;24.25;96177.31;4931590;29;20523;-63
2022/03/26 08:31:22;;;;;;;25.20;16.23;;;;;;;16.23;23.34;96164.63;4933274;29;20563;-62
2022/03/26 08:33:50;;;;;;;24.40;13.63;;;;;;;15.75;24.13;96172.88;4933453;29;20534;-66
2022/03/26 08:36:18;;;;;;;24.97;14.17;;;;;;;15.61;23.70;96166.47;4932442;29;20986;-64
2022/03/26 08:38:49;;;;;;;23.10;14.10;;;;;;;15.94;26.65;96168.75;4933219;29;20441;-66
2022/03/26 08:41:19;;;;;;;62.73;42.17;;;;;;;16.52;24.60;96159.72;4932114;29;20449;-64
2022/03/26 08:43:50;;;;;;;131.33;95.00;;;;;;;16.94;24.07;96150.50;4932667;29;20523;-59
2022/03/26 08:46:20;;;;;;;26.90;16.03;;;;;;;17.28;22.86;96149.97;4931197;29;20599;-61
2022/03/26 08:48:50;;;;;;;21.60;13.53;;;;;;;17.58;22.61;96144.66;4932679;29;20451;-62
2022/03/26 08:51:17;;;;;;;24.70;14.37;;;;;;;17.81;22.32;96144.84;4931646;29;20483;-64
2022/03/26 08:53:45;;;;;;;26.37;13.40;;;;;;;17.41;22.57;96144.16;4932496;29;20448;-63
2022/03/26 08:56:12;;;;;;;19.50;13.47;;;;;;;17.48;22.34;96145.47;4932420;29;20442;-63
2022/03/26 08:58:40;;;;;;;26.23;13.43;;;;;;;17.94;22.14;96138.97;4915220;29;20467;-65
2022/03/26 09:01:07;;;;;;;26.77;13.90;;;;;;;18.54;21.29;96129.94;4931350;29;20444;-65
2022/03/26 09:03:37;;;;;;;20.80;13.37;;;;;;;19.01;20.40;96126.72;4931762;29;20464;-61
2022/03/26 09:06:08;;;;;;;23.03;13.90;;;;;;;19.10;21.18;96125.81;4930717;29;20444;-67
2022/03/26 09:08:36;;;;;;;27.30;14.40;;;;;;;19.18;23.98;96121.78;4931129;29;20951;-61
2022/03/26 09:11:04;;;;;;;30.53;16.30;;;;;;;19.15;23.27;96128.44;4929832;29;20451;-65
2022/03/26 09:13:31;;;;;;;29.17;15.17;;;;;;;19.42;21.05;96117.31;4930191;29;20841;-62
2022/03/26 09:15:58;;;;;;;22.10;15.03;;;;;;;19.76;20.63;96119.91;4930313;29;20444;-63
2022/03/26 09:18:26;;;;;;;26.07;15.30;;;;;;;19.40;20.65;96113.34;4930435;29;20445;-57
2022/03/26 09:20:53;;;;;;;24.17;14.90;;;;;;;19.31;19.97;96107.03;4930410;29;20544;-65
2022/03/26 09:23:21;;;;;;;21.83;14.03;;;;;;;19.26;19.58;96109.75;4934247;29;20448;-58
2022/03/26 09:25:48;;;;;;;32.03;14.50;;;;;;;19.65;19.94;96105.13;4931313;29;20459;-62
2022/03/26 09:28:16;;;;;;;24.20;14.90;;;;;;;19.52;19.63;96105.81;4930895;29;20483;-64
2022/03/26 09:30:42;;;;;;;24.97;15.17;;;;;;;19.99;20.08;96100.47;4930128;29;20563;-59
2022/03/26 09:33:10;;;;;;;26.27;16.27;;;;;;;20.23;19.73;96087.94;4929950;29;21144;-58
2022/03/26 09:35:38;;;;;;;23.67;15.33;;;;;;;20.21;19.88;96102.63;4930432;29;20463;-57
2022/03/26 09:38:05;;;;;;;22.90;15.53;;;;;;;20.35;19.37;96098.97;4932191;29;20951;-52
2022/03/26 09:40:33;;;;;;;23.70;15.23;;;;;;;20.04;19.07;96081.78;4931711;29;20496;-62
2022/03/26 09:43:01;;;;;;;32.93;15.40;;;;;;;20.51;19.78;96087.00;4931687;29;20523;-61
2022/03/26 09:45:28;;;;;;;24.73;13.73;;;;;;;20.47;19.32;96088.69;4931261;29;20975;-59
2022/03/26 09:47:55;;;;;;;20.17;13.63;;;;;;;19.87;19.86;96076.16;4931463;29;20456;-61
2022/03/26 09:50:22;;;;;;;35.03;20.83;;;;;;;20.31;20.52;96076.66;4927474;29;20459;-58
2022/03/26 09:52:50;;;;;;;44.30;30.03;;;;;;;21.15;20.43;96065.75;4929887;29;20502;-55
2022/03/26 09:55:21;;;;;;;21.60;14.33;;;;;;;21.44;19.47;96067.41;4931324;29;20480;-59
2022/03/26 09:57:49;;;;;;;22.97;14.37;;;;;;;20.67;19.39;96067.06;4931950;29;20452;-57
2022/03/26 10:00:16;;;;;;;23.40;14.20;;;;;;;21.12;19.26;96070.88;4931300;29;20497;-60
2022/03/26 10:02:43;;;;;;;20.80;13.97;;;;;;;21.41;18.28;96059.97;4930646;29;20447;-56
2022/03/26 10:05:12;;;;;;;30.80;14.30;;;;;;;21.55;19.43;96060.78;4930171;29;20488;-63
2022/03/26 10:07:40;;;;;;;18.93;13.20;;;;;;;20.83;18.57;96057.75;4910899;29;20447;-56
2022/03/26 10:10:20;;;;;;;19.40;11.87;;;;;;;20.71;20.00;96057.41;4930768;29;20449;-61
2022/03/26 10:12:50;;;;;;;17.73;10.43;;;;;;;21.18;19.10;96053.72;4931112;29;20970;-62
2022/03/26 10:15:17;;;;;;;19.50;12.37;;;;;;;21.35;18.83;96053.16;4931211;29;20452;-65
2022/03/26 10:17:46;;;;;;;15.87;11.43;;;;;;;20.99;18.91;96040.47;4931461;29;20923;-65
2022/03/26 10:20:14;;;;;;;20.00;12.27;;;;;;;21.43;19.37;96055.94;4931491;29;20444;-67
2022/03/26 10:22:48;;;;;;;16.37;10.83;;;;;;;21.76;19.40;96048.63;4931224;29;20464;-63
2022/03/26 10:25:18;;;;;;;26.50;16.10;;;;;;;21.60;18.75;96037.47;4931358;29;20474;-70
2022/03/26 10:27:51;;;;;;;18.23;10.70;;;;;;;22.11;18.90;96034.56;4931268;29;20446;-59
2022/03/26 10:33:27;;;;;;;18.53;11.57;;;;;;;21.04;19.56;96027.03;4933136;29;20480;-63
2022/03/26 10:35:59;;;;;;;42.30;30.17;;;;;;;22.01;19.70;96022.22;4933277;29;20458;-62
2022/03/26 10:38:34;;;;;;;67.13;50.47;;;;;;;20.53;20.08;96020.94;4933564;29;20504;-58
2022/03/26 10:41:07;;;;;;;14.20;10.07;;;;;;;20.46;19.79;96025.03;4933072;29;20455;-59
2022/03/26 10:43:41;;;;;;;17.53;10.70;;;;;;;20.87;19.60;96016.13;4933610;29;20460;-61
2022/03/26 10:46:08;;;;;;;17.03;9.50;;;;;;;21.53;18.82;96010.38;4931802;29;20444;-64
2022/03/26 10:48:37;;;;;;;21.10;10.67;;;;;;;20.74;18.76;96016.88;4933691;29;20475;-62
2022/03/26 10:51:13;;;;;;;13.50;9.57;;;;;;;20.88;19.29;96007.03;4930742;29;20867;-63
2022/03/26 10:53:43;;;;;;;19.77;10.07;;;;;;;21.57;18.66;96008.72;4933091;29;20483;-63
2022/03/26 10:56:12;;;;;;;14.13;9.00;;;;;;;21.91;18.91;96003.78;4933494;29;20467;-60
2022/03/26 10:58:40;;;;;;;16.73;9.17;;;;;;;21.46;18.14;96003.88;4933040;29;20452;-60
2022/03/26 11:01:08;;;;;;;14.40;8.90;;;;;;;21.66;18.89;95990.16;4933104;29;20459;-63
2022/03/26 11:03:36;;;;;;;14.40;9.13;;;;;;;21.59;18.79;95995.88;4932826;29;20967;-63
2022/03/26 11:06:08;;;;;;;16.40;8.77;;;;;;;21.87;18.19;95992.13;4930495;29;20551;-61
2022/03/26 11:08:37;;;;;;;16.67;8.27;;;;;;;21.76;18.83;95980.03;4933325;29;20547;-60
2022/03/26 11:11:11;;;;;;;13.87;8.27;;;;;;;21.70;18.24;95981.22;4930543;29;20859;-62
2022/03/26 11:13:49;;;;;;;15.43;8.80;;;;;;;21.66;19.65;95976.81;4933255;29;20499;-66
2022/03/26 11:16:25;;;;;;;13.03;8.07;;;;;;;22.17;18.93;95974.63;4933291;29;20514;-63
2022/03/26 11:19:20;;;;;;;13.33;8.33;;;;;;;22.88;18.94;95963.03;4933909;29;20455;-62
2022/03/26 11:22:07;;;;;;;18.47;8.33;;;;;;;23.16;18.54;95960.97;4933902;29;20448;-59
2022/03/26 11:25:01;;;;;;;11.70;8.20;;;;;;;22.42;17.99;95955.34;4916529;29;20312;-63